createdAt,value
2023-02-13T00:01:11.407Z,100933.40
2023-02-13T00:03:39.146Z,100935.20
2023-02-13T00:06:07.457Z,100927.20
2023-02-13T00:08:35.987Z,100932.60
2023-02-13T00:11:03.723Z,100926.40
2023-02-13T00:13:31.422Z,100931.00
2023-02-13T00:16:01.967Z,100933.40
2023-02-13T00:18:34.834Z,100936.40
2023-02-13T00:21:09.300Z,100932.20
2023-02-13T00:23:38.985Z,100931.40
2023-02-13T00:26:11.334Z,100935.40
2023-02-13T00:28:40.687Z,100929.00
2023-02-13T00:31:12.769Z,100928.40
2023-02-13T00:33:41.326Z,100925.80
2023-02-13T00:36:13.324Z,100928.00
2023-02-13T00:38:42.961Z,100929.20
2023-02-13T00:41:11.142Z,100928.40
2023-02-13T00:43:39.373Z,100929.00
2023-02-13T00:46:07.088Z,100924.20
2023-02-13T00:48:36.344Z,100925.80
2023-02-13T00:51:05.858Z,100926.40
2023-02-13T00:53:34.817Z,100919.00
2023-02-13T00:56:03.311Z,100922.60
2023-02-13T00:58:31.225Z,100919.20
2023-02-13T01:00:59.976Z,100916.00
2023-02-13T01:03:28.214Z,100915.40
2023-02-13T01:05:58.116Z,100916.00
2023-02-13T01:08:28.555Z,100910.60
2023-02-13T01:10:57.703Z,100917.60
2023-02-13T01:13:26.695Z,100920.20
2023-02-13T01:15:54.409Z,100916.80
2023-02-13T01:18:22.363Z,100913.80
2023-02-13T01:21:07.423Z,100918.80
2023-02-13T01:23:38.837Z,100913.60
2023-02-13T01:26:09.112Z,100906.40
2023-02-13T01:28:36.878Z,100912.20
2023-02-13T01:31:05.114Z,100905.80
2023-02-13T01:33:33.145Z,100906.60
2023-02-13T01:36:07.588Z,100904.80
2023-02-13T01:38:35.477Z,100902.40
2023-02-13T01:41:04.293Z,100899.80
2023-02-13T01:43:54.211Z,100896.60
2023-02-13T01:46:28.833Z,100894.20
2023-02-13T01:49:05.374Z,100892.00
2023-02-13T01:51:35.162Z,100888.60
2023-02-13T01:54:21.130Z,100885.60
2023-02-13T01:56:57.570Z,100885.60
2023-02-13T01:59:41.064Z,100891.40
2023-02-13T02:02:08.878Z,100890.80
2023-02-13T02:04:41.669Z,100886.00
2023-02-13T02:07:27.786Z,100892.40
2023-02-13T02:10:03.208Z,100883.80
2023-02-13T02:13:01.728Z,100879.20
2023-02-13T02:15:30.115Z,100875.80
2023-02-13T02:17:57.764Z,100878.40
2023-02-13T02:21:23.841Z,100878.40
2023-02-13T02:23:54.323Z,100872.60
2023-02-13T02:26:39.756Z,100869.20
2023-02-13T02:29:48.429Z,100871.40
2023-02-13T02:33:03.209Z,100876.80
2023-02-13T02:35:49.150Z,100878.00
2023-02-13T02:38:48.032Z,100877.60
2023-02-13T02:41:57.637Z,100876.20
2023-02-13T02:44:37.358Z,100877.00
2023-02-13T02:47:35.821Z,100877.60
2023-02-13T02:50:23.623Z,100877.00
2023-02-13T02:53:31.621Z,100878.60
2023-02-13T02:56:09.781Z,100880.60
2023-02-13T02:59:00.035Z,100880.00
2023-02-13T03:01:58.474Z,100883.00
2023-02-13T03:04:47.527Z,100885.80
2023-02-13T03:07:18.907Z,100884.60
2023-02-13T03:10:22.504Z,100882.80
2023-02-13T03:13:19.455Z,100891.40
2023-02-13T03:16:10.762Z,100891.60
2023-02-13T03:19:03.746Z,100889.20
2023-02-13T03:22:23.623Z,100889.80
2023-02-13T03:25:34.263Z,100882.60
2023-02-13T03:29:07.590Z,100887.60
2023-02-13T03:31:54.099Z,100882.80
2023-02-13T03:34:48.004Z,100885.80
2023-02-13T03:37:38.832Z,100886.00
2023-02-13T03:40:16.126Z,100881.20
2023-02-13T03:42:51.521Z,100883.60
2023-02-13T03:45:46.459Z,100879.20
2023-02-13T03:48:38.257Z,100883.60
2023-02-13T03:51:10.374Z,100884.40
2023-02-13T03:53:43.499Z,100883.00
2023-02-13T03:56:33.167Z,100883.20
2023-02-13T03:59:18.714Z,100889.00
2023-02-13T04:02:19.540Z,100885.20
2023-02-13T04:04:58.060Z,100875.80
2023-02-13T04:07:33.222Z,100880.60
2023-02-13T04:10:10.299Z,100882.40
2023-02-13T04:12:44.885Z,100883.40
2023-02-13T04:15:21.718Z,100882.80
2023-02-13T04:17:58.262Z,100886.20
2023-02-13T04:20:31.162Z,100878.60
2023-02-13T04:23:06.734Z,100879.00
2023-02-13T04:25:38.854Z,100876.00
2023-02-13T04:28:07.118Z,100883.00
2023-02-13T04:30:34.911Z,100877.80
2023-02-13T04:33:02.654Z,100874.80
2023-02-13T04:35:30.940Z,100874.20
2023-02-13T04:37:58.712Z,100880.40
2023-02-13T04:40:26.423Z,100879.40
2023-02-13T04:42:54.068Z,100875.40
2023-02-13T04:45:21.836Z,100874.60
2023-02-13T04:47:55.340Z,100871.40
2023-02-13T04:50:24.146Z,100881.20
2023-02-13T04:52:57.506Z,100878.00
2023-02-13T04:55:27.914Z,100879.00
2023-02-13T04:57:56.400Z,100874.80
2023-02-13T05:00:27.318Z,100874.60
2023-02-13T05:03:00.949Z,100879.80
2023-02-13T05:05:28.794Z,100877.60
2023-02-13T05:07:56.524Z,100875.00
2023-02-13T05:10:24.289Z,100867.60
2023-02-13T05:12:52.138Z,100865.20
2023-02-13T05:15:20.298Z,100878.40
2023-02-13T05:17:48.009Z,100876.00
2023-02-13T05:20:16.958Z,100881.80
2023-02-13T05:23:09.901Z,100880.00
2023-02-13T05:25:40.331Z,100875.80
2023-02-13T05:28:35.351Z,100866.80
2023-02-13T05:31:03.408Z,100865.20
2023-02-13T05:33:31.379Z,100871.20
2023-02-13T05:35:59.200Z,100868.40
2023-02-13T05:38:26.953Z,100873.60
2023-02-13T05:40:54.702Z,100877.80
2023-02-13T05:43:22.420Z,100874.00
2023-02-13T05:45:52.202Z,100877.60
2023-02-13T05:48:19.916Z,100870.60
2023-02-13T05:50:48.290Z,100879.40
2023-02-13T05:53:16.060Z,100874.60
2023-02-13T05:55:43.784Z,100881.40
2023-02-13T05:58:12.030Z,100881.80
2023-02-13T06:00:39.750Z,100883.40
2023-02-13T06:03:07.402Z,100888.00
2023-02-13T06:05:35.039Z,100891.00
2023-02-13T06:08:02.826Z,100888.00
2023-02-13T06:10:30.594Z,100894.00
2023-02-13T06:12:58.377Z,100888.40
2023-02-13T06:15:26.010Z,100887.60
2023-02-13T06:17:53.695Z,100894.80
2023-02-13T06:20:21.450Z,100884.60
2023-02-13T06:22:52.852Z,100894.40
2023-02-13T06:25:21.672Z,100888.80
2023-02-13T06:27:49.756Z,100892.80
2023-02-13T06:30:18.988Z,100900.40
2023-02-13T06:32:48.390Z,100895.00
2023-02-13T06:35:16.959Z,100898.40
2023-02-13T06:37:45.244Z,100895.80
2023-02-13T06:40:15.461Z,100891.00
2023-02-13T06:42:46.110Z,100894.60
2023-02-13T06:45:14.831Z,100896.00
2023-02-13T06:47:48.616Z,100902.60
2023-02-13T06:50:18.235Z,100901.40
2023-02-13T06:52:51.796Z,100892.80
2023-02-13T06:55:20.902Z,100893.40
2023-02-13T06:57:49.133Z,100889.40
2023-02-13T07:00:18.924Z,100885.80
2023-02-13T07:02:47.693Z,100889.20
2023-02-13T07:05:15.470Z,100904.20
2023-02-13T07:07:43.746Z,100906.40
2023-02-13T07:10:14.546Z,100903.60
2023-02-13T07:12:42.377Z,100908.20
2023-02-13T07:15:10.758Z,100904.40
2023-02-13T07:17:38.549Z,100902.80
2023-02-13T07:20:10.109Z,100899.20
2023-02-13T07:22:38.033Z,100901.80
2023-02-13T07:25:06.377Z,100898.80
2023-02-13T07:27:34.342Z,100902.00
2023-02-13T07:30:02.083Z,100893.20
2023-02-13T07:32:29.796Z,100890.20
2023-02-13T07:35:02.012Z,100892.60
2023-02-13T07:37:31.830Z,100887.60
2023-02-13T07:40:00.083Z,100886.20
2023-02-13T07:42:27.908Z,100886.00
2023-02-13T07:44:55.685Z,100887.40
2023-02-13T07:47:23.570Z,100881.60
2023-02-13T07:49:51.291Z,100892.00
2023-02-13T07:52:19.016Z,100881.40
2023-02-13T07:54:49.854Z,100880.80
2023-02-13T07:57:17.740Z,100878.80
2023-02-13T07:59:45.582Z,100875.40
2023-02-13T08:02:15.585Z,100876.80
2023-02-13T08:04:46.606Z,100876.40
2023-02-13T08:07:17.478Z,100880.40
2023-02-13T08:10:04.853Z,100876.00
2023-02-13T08:12:36.505Z,100889.60
2023-02-13T08:15:05.465Z,100891.20
2023-02-13T08:17:33.233Z,100883.00
2023-02-13T08:20:01.048Z,100884.80
2023-02-13T08:22:28.875Z,100887.00
2023-02-13T08:24:56.571Z,100886.60
2023-02-13T08:27:24.404Z,100886.80
2023-02-13T08:29:52.278Z,100883.20
2023-02-13T08:32:21.010Z,100880.80
2023-02-13T08:34:49.054Z,100887.60
2023-02-13T08:37:18.323Z,100880.60
2023-02-13T08:39:46.105Z,100883.40
2023-02-13T08:42:15.976Z,100886.60
2023-02-13T08:44:44.757Z,100881.00
2023-02-13T08:47:12.506Z,100882.80
2023-02-13T08:49:40.307Z,100880.60
2023-02-13T08:52:07.974Z,100879.60
2023-02-13T08:54:36.362Z,100877.60
2023-02-13T08:57:04.702Z,100877.20
2023-02-13T08:59:32.665Z,100872.00
2023-02-13T09:02:00.455Z,100874.60
2023-02-13T09:04:28.341Z,100874.40
2023-02-13T09:06:56.518Z,100881.60
2023-02-13T09:09:24.394Z,100873.00
2023-02-13T09:11:52.616Z,100878.60
2023-02-13T09:14:20.353Z,100873.80
2023-02-13T09:16:48.179Z,100876.40
2023-02-13T09:19:16.057Z,100873.00
2023-02-13T09:21:43.827Z,100875.60
2023-02-13T09:24:11.601Z,100883.60
2023-02-13T09:26:39.386Z,100882.60
2023-02-13T09:29:07.184Z,100882.00
2023-02-13T09:31:35.050Z,100881.20
2023-02-13T09:34:03.034Z,100887.40
2023-02-13T09:36:30.779Z,100888.80
2023-02-13T09:38:58.784Z,100881.40
2023-02-13T09:41:39.936Z,100886.60
2023-02-13T09:44:39.021Z,100888.80
2023-02-13T09:47:39.545Z,100889.00
2023-02-13T09:50:22.369Z,100890.20
2023-02-13T09:52:54.260Z,100878.60
2023-02-13T09:55:37.442Z,100879.00
2023-02-13T09:58:39.592Z,100878.00
2023-02-13T10:01:31.355Z,100883.60
2023-02-13T10:04:24.499Z,100882.40
2023-02-13T10:07:23.056Z,100875.00
2023-02-13T10:10:23.256Z,100873.00
2023-02-13T10:12:53.857Z,100875.80
2023-02-13T10:16:02.465Z,100879.80
2023-02-13T10:18:45.043Z,100874.40
2023-02-13T10:21:14.688Z,100877.60
2023-02-13T10:23:54.846Z,100866.80
2023-02-13T10:26:42.858Z,100875.60
2023-02-13T10:29:49.966Z,100861.80
2023-02-13T10:32:27.408Z,100859.60
2023-02-13T10:34:58.869Z,100848.60
2023-02-13T10:37:28.616Z,100840.80
2023-02-13T10:39:56.795Z,100838.20
2023-02-13T10:42:45.292Z,100838.80
2023-02-13T10:45:34.375Z,100841.20
2023-02-13T10:48:27.184Z,100844.60
2023-02-13T10:51:25.094Z,100842.20
2023-02-13T10:54:20.629Z,100842.80
2023-02-13T10:57:36.435Z,100846.20
2023-02-13T11:00:23.647Z,100836.00
2023-02-13T11:02:51.383Z,100838.20
2023-02-13T11:05:25.989Z,100835.40
2023-02-13T11:07:53.744Z,100825.60
2023-02-13T11:10:26.145Z,100827.20
2023-02-13T11:12:54.970Z,100822.20
2023-02-13T11:15:33.145Z,100822.00
2023-02-13T11:18:19.334Z,100816.40
2023-02-13T11:20:49.508Z,100810.40
2023-02-13T11:23:35.062Z,100811.20
2023-02-13T11:26:21.185Z,100808.20
2023-02-13T11:28:58.057Z,100806.60
2023-02-13T11:31:35.860Z,100810.20
2023-02-13T11:34:34.921Z,100799.80
2023-02-13T11:37:16.315Z,100794.40
2023-02-13T11:39:50.132Z,100793.40
2023-02-13T11:42:35.209Z,100791.20
2023-02-13T11:45:25.596Z,100793.00
2023-02-13T11:47:56.105Z,100799.60
2023-02-13T11:50:36.360Z,100797.80
2023-02-13T11:53:25.618Z,100809.80
2023-02-13T11:56:15.844Z,100804.00
2023-02-13T11:58:43.569Z,100802.40
2023-02-13T12:01:20.558Z,100800.60
2023-02-13T12:04:18.025Z,100802.20
2023-02-13T12:07:09.996Z,100804.80
2023-02-13T12:09:41.178Z,100800.60
2023-02-13T12:12:22.913Z,100799.60
2023-02-13T12:14:51.172Z,100801.00
2023-02-13T12:17:32.508Z,100800.40
2023-02-13T12:20:01.318Z,100801.60
2023-02-13T12:22:53.728Z,100797.80
2023-02-13T12:25:57.452Z,100798.20
2023-02-13T12:29:12.490Z,100798.20
2023-02-13T12:32:03.124Z,100805.00
2023-02-13T12:35:08.456Z,100806.60
2023-02-13T12:38:04.484Z,100800.80
2023-02-13T12:40:58.570Z,100803.80
2023-02-13T12:44:14.208Z,100795.80
2023-02-13T12:47:23.834Z,100794.20
2023-02-13T12:50:47.958Z,100793.40
2023-02-13T12:53:43.756Z,100785.40
2023-02-13T12:56:36.153Z,100780.00
2023-02-13T12:59:28.934Z,100787.60
2023-02-13T13:02:40.158Z,100786.00
2023-02-13T13:05:41.995Z,100785.00
2023-02-13T13:08:31.441Z,100788.20
2023-02-13T13:11:17.586Z,100788.80
2023-02-13T13:14:06.748Z,100779.20
2023-02-13T13:16:59.082Z,100783.00
2023-02-13T13:19:41.277Z,100778.40
2023-02-13T13:22:19.497Z,100781.60
2023-02-13T13:25:14.006Z,100782.20
2023-02-13T13:27:50.263Z,100782.40
2023-02-13T13:30:22.904Z,100781.60
2023-02-13T13:33:02.387Z,100779.60
2023-02-13T13:35:32.486Z,100786.40
2023-02-13T13:38:29.711Z,100791.60
2023-02-13T13:41:08.677Z,100786.40
2023-02-13T13:44:26.560Z,100778.40
2023-02-13T13:47:16.303Z,100779.40
2023-02-13T13:49:57.898Z,100775.20
2023-02-13T13:52:29.758Z,100779.40
2023-02-13T13:55:00.638Z,100778.60
2023-02-13T13:58:21.541Z,100781.40
2023-02-13T14:01:29.456Z,100781.40
2023-02-13T14:04:30.705Z,100785.80
2023-02-13T14:07:22.896Z,100791.80
2023-02-13T14:09:50.705Z,100795.60
2023-02-13T14:12:24.602Z,100802.40
2023-02-13T14:14:54.516Z,100797.20
2023-02-13T14:17:44.060Z,100789.60
2023-02-13T14:20:31.242Z,100791.00
2023-02-13T14:23:33.962Z,100784.40
2023-02-13T14:26:17.458Z,100783.40
2023-02-13T14:28:51.441Z,100785.60
2023-02-13T14:31:31.678Z,100787.40
2023-02-13T14:34:05.799Z,100777.80
2023-02-13T14:36:39.575Z,100781.00
2023-02-13T14:39:33.475Z,100781.60
2023-02-13T14:42:04.288Z,100780.80
2023-02-13T14:44:42.902Z,100775.00
2023-02-13T14:47:31.936Z,100773.00
2023-02-13T14:50:04.618Z,100759.80
2023-02-13T14:52:43.123Z,100762.60
2023-02-13T14:55:41.018Z,100765.60
2023-02-13T14:58:27.254Z,100759.80
2023-02-13T15:01:06.549Z,100756.40
2023-02-13T15:03:48.800Z,100753.60
2023-02-13T15:06:31.071Z,100749.40
2023-02-13T15:09:04.376Z,100743.80
2023-02-13T15:11:42.978Z,100738.80
2023-02-13T15:14:30.155Z,100740.40
2023-02-13T15:17:05.803Z,100752.80
2023-02-13T15:19:38.018Z,100751.20
2023-02-13T15:22:07.146Z,100748.00
2023-02-13T15:24:47.133Z,100760.00
2023-02-13T15:27:27.235Z,100761.80
2023-02-13T15:30:18.100Z,100754.00
2023-02-13T15:32:57.315Z,100758.80
2023-02-13T15:35:28.448Z,100760.60
2023-02-13T15:37:56.739Z,100760.80
2023-02-13T15:40:30.651Z,100761.40
2023-02-13T15:43:00.613Z,100753.60
2023-02-13T15:45:30.388Z,100752.20
2023-02-13T15:47:59.124Z,100750.60
2023-02-13T15:50:31.541Z,100754.00
2023-02-13T15:53:04.613Z,100744.40
2023-02-13T15:55:36.556Z,100742.40
2023-02-13T15:58:04.958Z,100749.60
2023-02-13T16:00:39.216Z,100746.40
2023-02-13T16:03:16.496Z,100738.60
2023-02-13T16:05:46.932Z,100735.20
2023-02-13T16:08:35.448Z,100734.20
2023-02-13T16:11:44.549Z,100731.80
2023-02-13T16:14:21.275Z,100736.40
2023-02-13T16:17:05.745Z,100734.00
2023-02-13T16:19:50.580Z,100734.20
2023-02-13T16:22:25.821Z,100736.40
2023-02-13T16:25:04.260Z,100730.40
2023-02-13T16:27:34.518Z,100740.80
2023-02-13T16:30:07.564Z,100750.20
2023-02-13T16:32:41.348Z,100761.00
2023-02-13T16:35:33.839Z,100763.60
2023-02-13T16:38:02.636Z,100760.60
2023-02-13T16:40:42.677Z,100753.20
2023-02-13T16:43:44.242Z,100741.20
2023-02-13T16:46:15.079Z,100733.40
2023-02-13T16:48:57.289Z,100728.40
2023-02-13T16:52:21.874Z,100725.20
2023-02-13T16:54:55.953Z,100727.40
2023-02-13T16:57:34.213Z,100727.40
2023-02-13T17:00:24.512Z,100732.80
2023-02-13T17:02:53.351Z,100731.20
2023-02-13T17:05:28.567Z,100724.40
2023-02-13T17:07:58.819Z,100726.60
2023-02-13T17:10:31.085Z,100732.20
2023-02-13T17:13:03.001Z,100717.20
2023-02-13T17:15:32.296Z,100715.00
2023-02-13T17:18:00.789Z,100721.40
2023-02-13T17:20:32.595Z,100732.60
2023-02-13T17:23:04.145Z,100723.40
2023-02-13T17:25:35.710Z,100712.40
2023-02-13T17:28:09.285Z,100720.20
2023-02-13T17:30:37.300Z,100739.40
2023-02-13T17:33:12.568Z,100725.20
2023-02-13T17:35:40.396Z,100720.60
2023-02-13T17:38:10.430Z,100724.40
2023-02-13T17:40:41.686Z,100727.20
2023-02-13T17:43:12.696Z,100720.40
2023-02-13T17:45:40.887Z,100733.40
2023-02-13T17:48:09.069Z,100750.00
2023-02-13T17:50:37.720Z,100744.60
2023-02-13T17:53:14.703Z,100733.60
2023-02-13T17:55:42.486Z,100726.80
2023-02-13T17:58:10.254Z,100734.80
2023-02-13T18:00:38.171Z,100721.20
2023-02-13T18:03:06.051Z,100695.60
2023-02-13T18:05:34.569Z,100680.00
2023-02-13T18:08:02.808Z,100681.80
2023-02-13T18:10:36.004Z,100693.80
2023-02-13T18:13:04.793Z,100716.80
2023-02-13T18:15:43.034Z,100715.40
2023-02-13T18:18:13.167Z,100721.20
2023-02-13T18:20:40.969Z,100719.60
2023-02-13T18:23:09.480Z,100716.00
2023-02-13T18:25:37.342Z,100707.20
2023-02-13T18:28:05.286Z,100709.00
2023-02-13T18:30:33.166Z,100711.20
2023-02-13T18:33:05.083Z,100729.20
2023-02-13T18:35:34.826Z,100714.80
2023-02-13T18:38:03.001Z,100721.80
2023-02-13T18:40:30.806Z,100730.20
2023-02-13T18:42:59.352Z,100722.20
2023-02-13T18:45:27.103Z,100729.80
2023-02-13T18:47:54.854Z,100728.60
2023-02-13T18:50:23.399Z,100723.00
2023-02-13T18:52:51.124Z,100721.20
2023-02-13T18:55:18.913Z,100719.60
2023-02-13T18:57:48.021Z,100721.80
2023-02-13T19:00:17.284Z,100727.00
2023-02-13T19:02:45.269Z,100729.60
2023-02-13T19:05:13.032Z,100731.40
2023-02-13T19:07:40.774Z,100732.00
2023-02-13T19:10:09.083Z,100735.00
2023-02-13T19:12:37.553Z,100741.40
2023-02-13T19:15:06.097Z,100749.20
2023-02-13T19:17:35.714Z,100756.40
2023-02-13T19:20:05.226Z,100749.80
2023-02-13T19:22:32.962Z,100754.20
2023-02-13T19:25:01.603Z,100757.40
2023-02-13T19:27:29.414Z,100754.20
2023-02-13T19:29:57.065Z,100758.00
2023-02-13T19:32:25.106Z,100762.00
2023-02-13T19:34:53.146Z,100754.80
2023-02-13T19:37:20.902Z,100752.60
2023-02-13T19:39:48.648Z,100760.00
2023-02-13T19:42:16.345Z,100755.00
2023-02-13T19:44:44.332Z,100747.20
2023-02-13T19:47:12.193Z,100749.20
2023-02-13T19:49:39.903Z,100746.40
2023-02-13T19:52:07.589Z,100745.60
2023-02-13T19:54:35.235Z,100750.60
2023-02-13T19:57:06.117Z,100759.40
2023-02-13T19:59:33.961Z,100763.20
2023-02-13T20:02:01.841Z,100770.00
2023-02-13T20:04:29.594Z,100773.80
2023-02-13T20:06:58.445Z,100779.60
2023-02-13T20:09:26.176Z,100785.40
2023-02-13T20:11:54.019Z,100787.60
2023-02-13T20:14:22.024Z,100783.80
2023-02-13T20:16:49.821Z,100783.00
2023-02-13T20:19:17.965Z,100779.20
2023-02-13T20:21:45.925Z,100780.20
2023-02-13T20:24:13.849Z,100786.00
2023-02-13T20:26:42.430Z,100797.00
2023-02-13T20:29:10.240Z,100796.20
2023-02-13T20:31:41.341Z,100800.00
2023-02-13T20:34:10.218Z,100805.00
2023-02-13T20:36:38.336Z,100802.60
2023-02-13T20:39:07.993Z,100804.60
2023-02-13T20:41:38.010Z,100808.80
2023-02-13T20:44:11.097Z,100809.00
2023-02-13T20:46:40.247Z,100810.20
2023-02-13T20:49:10.697Z,100808.40
2023-02-13T20:51:38.873Z,100805.80
2023-02-13T20:54:06.624Z,100806.40
2023-02-13T20:56:34.405Z,100804.80
2023-02-13T20:59:03.385Z,100804.60
2023-02-13T21:01:35.665Z,100816.40
2023-02-13T21:04:03.542Z,100813.60
2023-02-13T21:06:36.586Z,100812.20
2023-02-13T21:09:09.299Z,100809.80
2023-02-13T21:11:39.959Z,100807.20
2023-02-13T21:14:08.021Z,100807.20
2023-02-13T21:16:40.339Z,100805.20
2023-02-13T21:19:14.357Z,100801.80
2023-02-13T21:21:44.178Z,100806.80
2023-02-13T21:24:17.185Z,100806.20
2023-02-13T21:26:46.157Z,100811.80
2023-02-13T21:29:14.035Z,100812.80
2023-02-13T21:31:47.737Z,100812.20
2023-02-13T21:34:17.889Z,100811.00
2023-02-13T21:36:46.416Z,100806.60
2023-02-13T21:39:14.773Z,100815.20
2023-02-13T21:41:44.942Z,100814.00
2023-02-13T21:44:15.028Z,100815.00
2023-02-13T21:46:45.601Z,100812.00
2023-02-13T21:49:18.618Z,100815.40
2023-02-13T21:51:46.851Z,100810.80
2023-02-13T21:54:14.888Z,100806.60
2023-02-13T21:56:44.010Z,100804.40
2023-02-13T21:59:16.984Z,100807.40
2023-02-13T22:01:50.091Z,100808.60
2023-02-13T22:04:18.741Z,100810.80
2023-02-13T22:06:52.392Z,100806.40
2023-02-13T22:09:22.233Z,100806.60
2023-02-13T22:11:52.916Z,100809.20
2023-02-13T22:14:21.561Z,100807.80
2023-02-13T22:16:52.155Z,100801.80
2023-02-13T22:19:20.518Z,100808.00
2023-02-13T22:21:48.859Z,100804.80
2023-02-13T22:24:16.681Z,100805.20
2023-02-13T22:26:45.399Z,100803.00
2023-02-13T22:29:16.408Z,100806.00
2023-02-13T22:31:45.725Z,100811.40
2023-02-13T22:34:14.111Z,100807.20
2023-02-13T22:36:42.985Z,100805.80
2023-02-13T22:39:12.108Z,100812.00
2023-02-13T22:41:41.102Z,100814.20
2023-02-13T22:44:08.883Z,100805.00
2023-02-13T22:46:36.638Z,100799.40
2023-02-13T22:49:04.473Z,100801.20
2023-02-13T22:51:35.751Z,100798.60
2023-02-13T22:54:04.231Z,100794.60
2023-02-13T22:56:32.739Z,100795.60
2023-02-13T22:59:00.594Z,100787.40
2023-02-13T23:01:29.394Z,100790.20
2023-02-13T23:03:57.737Z,100792.00
2023-02-13T23:06:26.983Z,100793.40
2023-02-13T23:08:56.164Z,100800.00
2023-02-13T23:11:47.555Z,100800.20
2023-02-13T23:14:16.418Z,100799.00
2023-02-13T23:17:03.398Z,100795.80
2023-02-13T23:19:31.684Z,100792.60
2023-02-13T23:22:00.411Z,100796.80
2023-02-13T23:24:30.052Z,100791.00
2023-02-13T23:26:59.676Z,100794.80
2023-02-13T23:29:27.424Z,100793.60
2023-02-13T23:31:55.596Z,100791.00
2023-02-13T23:34:23.585Z,100790.40
2023-02-13T23:36:51.331Z,100782.60
2023-02-13T23:39:20.320Z,100775.20
2023-02-13T23:41:47.951Z,100769.40
2023-02-13T23:44:15.652Z,100769.60
2023-02-13T23:46:43.492Z,100765.00
2023-02-13T23:49:11.433Z,100760.00
2023-02-13T23:51:39.190Z,100754.60
2023-02-13T23:54:06.947Z,100755.40
2023-02-13T23:56:34.814Z,100761.40
2023-02-13T23:59:02.524Z,100762.20
